Detroit, Michigan
Traffic Map
Current Weather Conditions
Detroit, Michigan
Clear
Clear
41°
Feels Like: 34°
Wind Chill: 34° Ceiling: Unl
Heat Index: 41° Visibility: 15mi
Dew Point: 34° Wind: 12mph
Humidity: 76% Direction: 50° (NE)
Pressure: 30.47in Gusts: 0mph
Raw Report DataCYQG 191400Z 05010KT 15SM SKC 05/01 A3047 RMK SLP322
Traffic Incident Summary
Active as of:
Severity:
Category:
InformationThere was an issue retrieving the traffic information for this location. Please try a different location or try again shortly.
Advertisements
At Last! Intellicast now available for iPhone and Android